createdAt,value
2023-01-10T00:02:12.408Z,96471.96
2023-01-10T00:04:40.734Z,96493.00
2023-01-10T00:07:08.931Z,96490.62
2023-01-10T00:09:38.202Z,96481.08
2023-01-10T00:12:31.191Z,96482.95
2023-01-10T00:15:05.937Z,96473.70
2023-01-10T00:17:34.343Z,96476.97
2023-01-10T00:20:22.867Z,96486.61
2023-01-10T00:22:52.003Z,96483.22
2023-01-10T00:25:20.971Z,96480.38
2023-01-10T00:27:51.466Z,96466.14
2023-01-10T00:30:19.797Z,96484.93
2023-01-10T00:32:54.756Z,96487.59
2023-01-10T00:35:23.481Z,96479.60
2023-01-10T00:37:53.495Z,96477.17
2023-01-10T00:40:21.712Z,96476.33
2023-01-10T00:43:08.253Z,96465.36
2023-01-10T00:45:36.543Z,96459.20
2023-01-10T00:48:07.229Z,96464.75
2023-01-10T00:50:43.376Z,96462.64
2023-01-10T00:53:17.758Z,96463.66
2023-01-10T00:55:49.479Z,96461.16
2023-01-10T00:58:17.939Z,96463.70
2023-01-10T01:00:46.536Z,96461.67
2023-01-10T01:03:15.239Z,96459.67
2023-01-10T01:05:45.644Z,96455.61
2023-01-10T01:08:16.409Z,96453.34
2023-01-10T01:10:44.733Z,96452.73
2023-01-10T01:13:20.162Z,96449.20
2023-01-10T01:15:48.796Z,96454.17
2023-01-10T01:18:21.192Z,96464.44
2023-01-10T01:20:59.827Z,96452.62
2023-01-10T01:23:28.684Z,96443.75
2023-01-10T01:25:57.755Z,96440.02
2023-01-10T01:28:26.888Z,96447.36
2023-01-10T01:30:55.127Z,96463.61
2023-01-10T01:33:23.931Z,96457.95
2023-01-10T01:35:52.069Z,96468.06
2023-01-10T01:38:20.178Z,96462.44
2023-01-10T01:40:48.198Z,96458.99
2023-01-10T01:43:25.681Z,96441.41
2023-01-10T01:45:55.276Z,96431.86
2023-01-10T01:48:39.513Z,96420.19
2023-01-10T01:51:18.083Z,96431.70
2023-01-10T01:53:54.367Z,96430.20
2023-01-10T01:56:48.161Z,96431.37
2023-01-10T01:59:21.517Z,96431.92
2023-01-10T02:01:54.180Z,96430.88
2023-01-10T02:04:33.905Z,96441.08
2023-01-10T02:07:02.110Z,96438.70
2023-01-10T02:09:50.787Z,96442.47
2023-01-10T02:12:28.453Z,96436.37
2023-01-10T02:15:04.430Z,96444.91
2023-01-10T02:17:44.687Z,96442.53
2023-01-10T02:20:18.863Z,96442.53
2023-01-10T02:23:24.584Z,96444.42
2023-01-10T02:26:16.829Z,96449.45
2023-01-10T02:29:10.896Z,96453.69
2023-01-10T02:35:52.197Z,96446.47
2023-01-10T02:38:47.447Z,96441.14
2023-01-10T02:41:49.777Z,96432.05
2023-01-10T02:44:46.418Z,96429.09
2023-01-10T02:47:26.873Z,96420.55
2023-01-10T02:50:04.148Z,96416.00
2023-01-10T02:52:32.680Z,96411.16
2023-01-10T02:55:03.506Z,96410.90
2023-01-10T02:57:39.781Z,96406.91
2023-01-10T03:00:28.803Z,96400.50
2023-01-10T03:03:14.451Z,96393.52
2023-01-10T03:06:13.391Z,96394.30
2023-01-10T03:08:55.251Z,96397.67
2023-01-10T03:11:29.591Z,96385.39
2023-01-10T03:14:00.495Z,96388.83
2023-01-10T03:16:31.521Z,96383.95
2023-01-10T03:19:20.692Z,96377.78
2023-01-10T03:21:52.545Z,96374.80
2023-01-10T03:24:25.206Z,96378.79
2023-01-10T03:27:13.765Z,96370.02
2023-01-10T03:30:02.340Z,96370.57
2023-01-10T03:32:32.384Z,96370.63
2023-01-10T03:35:02.602Z,96370.96
2023-01-10T03:37:59.641Z,96361.70
2023-01-10T03:40:43.431Z,96367.09
2023-01-10T03:43:44.460Z,96368.53
2023-01-10T03:46:21.561Z,96368.53
2023-01-10T03:48:51.623Z,96370.94
2023-01-10T03:51:20.529Z,96358.42
2023-01-10T03:53:48.744Z,96368.27
2023-01-10T03:56:16.925Z,96362.94
2023-01-10T03:58:47.058Z,96363.49
2023-01-10T04:01:15.952Z,96378.15
2023-01-10T04:03:46.072Z,96376.27
2023-01-10T04:06:14.397Z,96373.59
2023-01-10T04:08:42.624Z,96380.52
2023-01-10T04:11:10.914Z,96385.84
2023-01-10T04:13:40.875Z,96388.73
2023-01-10T04:16:09.265Z,96387.89
2023-01-10T04:18:37.354Z,96390.45
2023-01-10T04:21:06.496Z,96382.73
2023-01-10T04:23:34.538Z,96377.07
2023-01-10T04:26:02.613Z,96389.22
2023-01-10T04:28:30.521Z,96388.37
2023-01-10T04:30:58.698Z,96387.27
2023-01-10T04:33:28.178Z,96390.42
2023-01-10T04:35:56.263Z,96388.77
2023-01-10T04:38:24.212Z,96394.25
2023-01-10T04:40:54.733Z,96396.36
2023-01-10T04:43:25.066Z,96396.59
2023-01-10T04:45:53.320Z,96396.52
2023-01-10T04:48:21.546Z,96400.45
2023-01-10T04:50:53.166Z,96398.56
2023-01-10T04:53:21.985Z,96394.80
2023-01-10T04:55:49.960Z,96394.24
2023-01-10T04:58:18.234Z,96386.50
2023-01-10T05:00:46.301Z,96395.50
2023-01-10T05:03:19.434Z,96393.33
2023-01-10T05:05:47.749Z,96394.10
2023-01-10T05:08:32.051Z,96393.00
2023-01-10T05:11:05.279Z,96395.89
2023-01-10T05:13:53.060Z,96389.22
2023-01-10T05:16:29.154Z,96382.17
2023-01-10T05:18:58.534Z,96397.48
2023-01-10T05:21:44.874Z,96399.89
2023-01-10T05:24:30.773Z,96410.26
2023-01-10T05:27:06.224Z,96407.59
2023-01-10T05:29:38.363Z,96414.41
2023-01-10T05:32:06.860Z,96418.09
2023-01-10T05:34:35.239Z,96421.01
2023-01-10T05:37:03.728Z,96426.57
2023-01-10T05:39:32.109Z,96425.23
2023-01-10T05:42:00.677Z,96431.58
2023-01-10T05:44:28.109Z,96431.58
2023-01-10T05:46:56.015Z,96433.72
2023-01-10T05:49:23.875Z,96438.95
2023-01-10T05:51:51.745Z,96442.95
2023-01-10T05:54:19.572Z,96450.95
2023-01-10T05:56:47.280Z,96465.88
2023-01-10T05:59:27.461Z,96465.55
2023-01-10T06:01:44.495Z,96471.11
2023-01-10T06:04:12.335Z,96474.03
2023-01-10T06:06:40.189Z,96464.15
2023-01-10T06:09:07.877Z,96455.05
2023-01-10T06:11:37.711Z,96453.38
2023-01-10T06:14:07.266Z,96468.05
2023-01-10T06:16:35.059Z,96471.27
2023-01-10T06:19:02.942Z,96478.42
2023-01-10T06:21:30.711Z,96484.31
2023-01-10T06:23:58.576Z,96485.09
2023-01-10T06:26:26.420Z,96488.53
2023-01-10T06:28:54.362Z,96494.65
2023-01-10T06:31:22.783Z,96487.42
2023-01-10T06:33:51.432Z,96493.80
2023-01-10T06:36:19.765Z,96490.03
2023-01-10T06:38:47.953Z,96492.38
2023-01-10T06:41:15.675Z,96497.70
2023-01-10T06:43:45.840Z,96501.18
2023-01-10T06:46:19.083Z,96501.18
2023-01-10T06:48:47.808Z,96494.74
2023-01-10T06:51:19.162Z,96493.89
2023-01-10T06:53:46.501Z,96494.12
2023-01-10T06:56:14.288Z,96500.23
2023-01-10T06:58:42.017Z,96501.50
2023-01-10T07:01:19.593Z,96501.95
2023-01-10T07:03:48.353Z,96501.66
2023-01-10T07:06:16.338Z,96501.03
2023-01-10T07:08:45.918Z,96502.27
2023-01-10T07:11:16.542Z,96500.80
2023-01-10T07:13:44.566Z,96503.84
2023-01-10T07:16:15.591Z,96512.34
2023-01-10T07:18:43.673Z,96510.37
2023-01-10T07:21:12.138Z,96513.20
2023-01-10T07:23:40.307Z,96518.98
2023-01-10T07:26:11.200Z,96520.55
2023-01-10T07:28:38.791Z,96522.92
2023-01-10T07:31:06.583Z,96530.86
2023-01-10T07:33:34.347Z,96538.21
2023-01-10T07:36:03.371Z,96535.63
2023-01-10T07:38:31.154Z,96519.20
2023-01-10T07:41:04.448Z,96511.27
2023-01-10T07:43:33.469Z,96511.58
2023-01-10T07:46:04.112Z,96513.73
2023-01-10T07:48:31.827Z,96510.61
2023-01-10T07:51:01.342Z,96514.27
2023-01-10T07:53:29.393Z,96508.45
2023-01-10T07:56:02.683Z,96502.05
2023-01-10T07:58:31.147Z,96508.23
2023-01-10T08:01:01.950Z,96506.70
2023-01-10T08:03:30.323Z,96517.51
2023-01-10T08:06:04.367Z,96511.59
2023-01-10T08:08:34.004Z,96508.86
2023-01-10T08:11:02.269Z,96502.98
2023-01-10T08:13:31.483Z,96498.80
2023-01-10T08:15:59.691Z,96496.93
2023-01-10T08:18:27.675Z,96497.64
2023-01-10T08:20:55.589Z,96505.13
2023-01-10T08:23:23.547Z,96512.29
2023-01-10T08:25:53.975Z,96506.48
2023-01-10T08:28:21.691Z,96501.78
2023-01-10T08:30:51.575Z,96501.47
2023-01-10T08:33:19.292Z,96500.91
2023-01-10T08:35:47.196Z,96504.27
2023-01-10T08:38:15.877Z,96501.70
2023-01-10T08:40:43.537Z,96503.41
2023-01-10T08:43:12.461Z,96508.67
2023-01-10T08:45:42.092Z,96513.01
2023-01-10T08:48:10.297Z,96519.56
2023-01-10T08:50:38.187Z,96524.92
2023-01-10T08:53:05.941Z,96540.02
2023-01-10T08:55:36.800Z,96551.73
2023-01-10T08:58:04.566Z,96557.23
2023-01-10T09:00:32.406Z,96562.06
2023-01-10T09:03:00.535Z,96568.12
2023-01-10T09:05:28.703Z,96561.64
2023-01-10T09:08:02.082Z,96568.24
2023-01-10T09:10:31.653Z,96568.24
2023-01-10T09:13:01.103Z,96564.56
2023-01-10T09:15:35.208Z,96567.25
2023-01-10T09:18:07.101Z,96575.05
2023-01-10T09:20:37.862Z,96569.92
2023-01-10T09:23:09.393Z,96575.29
2023-01-10T09:25:37.972Z,96579.84
2023-01-10T09:28:06.738Z,96581.19
2023-01-10T09:30:34.836Z,96583.09
2023-01-10T09:33:04.837Z,96580.19
2023-01-10T09:35:35.640Z,96574.27
2023-01-10T09:38:06.119Z,96570.05
2023-01-10T09:41:12.422Z,96562.55
2023-01-10T09:43:52.808Z,96567.02
2023-01-10T09:46:53.703Z,96572.18
2023-01-10T09:49:48.919Z,96569.83
2023-01-10T09:52:27.676Z,96563.58
2023-01-10T09:54:58.655Z,96559.56
2023-01-10T09:57:26.433Z,96564.83
2023-01-10T09:59:54.277Z,96567.50
2023-01-10T10:02:34.943Z,96568.28
2023-01-10T10:05:20.169Z,96574.22
2023-01-10T10:07:56.142Z,96571.95
2023-01-10T10:10:33.276Z,96575.55
2023-01-10T10:13:37.748Z,96574.30
2023-01-10T10:16:46.863Z,96578.42
2023-01-10T10:20:02.763Z,96561.34
2023-01-10T10:23:03.597Z,96558.44
2023-01-10T10:25:57.009Z,96564.58
2023-01-10T10:28:56.375Z,96573.84
2023-01-10T10:31:52.564Z,96570.28
2023-01-10T10:34:37.378Z,96576.53
2023-01-10T10:37:33.242Z,96577.90
2023-01-10T10:40:22.328Z,96585.48
2023-01-10T10:42:53.584Z,96573.42
2023-01-10T10:45:29.440Z,96580.31
2023-01-10T10:48:05.650Z,96584.44
2023-01-10T10:50:35.692Z,96578.61
2023-01-10T10:53:04.773Z,96571.01
2023-01-10T10:55:37.066Z,96578.81
2023-01-10T10:58:08.277Z,96570.30
2023-01-10T11:00:48.853Z,96568.48
2023-01-10T11:03:49.583Z,96561.66
2023-01-10T11:06:19.776Z,96564.80
2023-01-10T11:08:52.486Z,96556.73
2023-01-10T11:11:37.046Z,96549.56
2023-01-10T11:14:08.529Z,96553.17
2023-01-10T11:16:44.399Z,96564.03
2023-01-10T11:19:24.902Z,96565.16
2023-01-10T11:22:02.525Z,96570.75
2023-01-10T11:24:40.593Z,96571.98
2023-01-10T11:27:18.505Z,96585.32
2023-01-10T11:29:50.504Z,96588.79
2023-01-10T11:32:22.994Z,96590.70
2023-01-10T11:35:01.426Z,96594.31
2023-01-10T11:37:32.921Z,96579.33
2023-01-10T11:40:25.653Z,96574.52
2023-01-10T11:43:06.843Z,96567.48
2023-01-10T11:46:06.807Z,96571.83
2023-01-10T11:49:08.631Z,96565.58
2023-01-10T11:51:34.674Z,96575.22
2023-01-10T11:54:15.051Z,96566.27
2023-01-10T11:57:00.237Z,96572.52
2023-01-10T11:59:28.868Z,96573.76
2023-01-10T12:02:22.791Z,96569.73
2023-01-10T12:04:52.752Z,96564.02
2023-01-10T12:07:23.787Z,96556.98
2023-01-10T12:10:03.415Z,96561.02
2023-01-10T12:12:38.053Z,96558.65
2023-01-10T12:15:30.425Z,96566.16
2023-01-10T12:18:05.320Z,96553.84
2023-01-10T12:20:38.635Z,96550.36
2023-01-10T12:23:14.708Z,96549.90
2023-01-10T12:25:45.157Z,96547.45
2023-01-10T12:28:23.504Z,96556.08
2023-01-10T12:30:55.818Z,96559.54
2023-01-10T12:33:34.993Z,96554.63
2023-01-10T12:36:25.577Z,96551.62
2023-01-10T12:39:23.096Z,96557.77
2023-01-10T12:42:30.269Z,96562.36
2023-01-10T12:45:10.072Z,96562.11
2023-01-10T12:48:07.450Z,96567.94
2023-01-10T12:50:53.127Z,96579.80
2023-01-10T12:53:34.173Z,96581.70
2023-01-10T12:56:08.664Z,96581.46
2023-01-10T12:58:51.832Z,96579.69
2023-01-10T13:01:27.964Z,96580.36
2023-01-10T13:04:06.223Z,96583.60
2023-01-10T13:06:37.881Z,96586.85
2023-01-10T13:09:27.804Z,96573.41
2023-01-10T13:12:12.269Z,96597.80
2023-01-10T13:15:13.145Z,96606.98
2023-01-10T13:17:48.206Z,96610.08
2023-01-10T13:20:26.375Z,96607.84
2023-01-10T13:23:00.792Z,96600.25
2023-01-10T13:25:34.549Z,96590.18
2023-01-10T13:28:28.149Z,96596.21
2023-01-10T13:31:00.970Z,96603.05
2023-01-10T13:33:33.013Z,96599.22
2023-01-10T13:36:14.965Z,96595.30
2023-01-10T13:38:50.988Z,96590.06
2023-01-10T13:41:37.920Z,96593.84
2023-01-10T13:44:11.191Z,96586.23
2023-01-10T13:46:51.805Z,96582.56
2023-01-10T13:49:40.100Z,96585.69
2023-01-10T13:52:29.792Z,96589.72
2023-01-10T13:55:03.298Z,96592.39
2023-01-10T13:57:55.983Z,96586.78
2023-01-10T14:00:53.489Z,96582.89
2023-01-10T14:03:53.144Z,96582.77
2023-01-10T14:06:36.903Z,96596.59
2023-01-10T14:09:28.913Z,96606.98
2023-01-10T14:23:18.221Z,96587.55
2023-01-10T14:25:55.319Z,96594.56
2023-01-10T14:28:28.210Z,96602.70
2023-01-10T14:31:21.809Z,96608.23
2023-01-10T14:33:50.497Z,96612.47
2023-01-10T14:36:34.043Z,96617.80
2023-01-10T14:39:06.768Z,96613.98
2023-01-10T14:41:43.548Z,96620.30
2023-01-10T14:44:32.943Z,96617.49
2023-01-10T14:47:04.089Z,96613.46
2023-01-10T14:49:50.796Z,96616.41
2023-01-10T14:52:22.261Z,96616.61
2023-01-10T14:55:22.221Z,96613.88
2023-01-10T14:58:01.751Z,96609.30
2023-01-10T15:00:33.825Z,96598.41
2023-01-10T15:03:04.408Z,96604.82
2023-01-10T15:05:40.604Z,96606.66
2023-01-10T15:08:25.111Z,96614.55
2023-01-10T15:11:01.684Z,96617.73
2023-01-10T15:13:35.251Z,96627.81
2023-01-10T15:16:07.485Z,96625.00
2023-01-10T15:18:43.402Z,96622.19
2023-01-10T15:21:14.322Z,96616.47
2023-01-10T15:23:45.940Z,96634.27
2023-01-10T15:26:30.217Z,96641.03
2023-01-10T15:29:16.525Z,96636.09
2023-01-10T15:31:44.721Z,96639.63
2023-01-10T15:34:22.461Z,96644.05
2023-01-10T15:36:57.309Z,96648.14
2023-01-10T15:39:32.823Z,96639.45
2023-01-10T15:42:09.165Z,96642.20
2023-01-10T15:44:44.745Z,96643.61
2023-01-10T15:47:39.479Z,96647.70
2023-01-10T15:50:28.872Z,96654.49
2023-01-10T15:53:00.800Z,96653.53
2023-01-10T15:55:46.645Z,96653.38
2023-01-10T15:58:30.684Z,96651.59
2023-01-10T16:01:01.452Z,96647.11
2023-01-10T16:03:36.928Z,96649.48
2023-01-10T16:06:08.407Z,96653.16
2023-01-10T16:08:38.643Z,96659.54
2023-01-10T16:11:11.982Z,96663.55
2023-01-10T16:13:41.058Z,96655.38
2023-01-10T16:16:14.424Z,96667.23
2023-01-10T16:18:42.241Z,96656.77
2023-01-10T16:21:11.412Z,96659.99
2023-01-10T16:23:43.659Z,96659.21
2023-01-10T16:26:19.758Z,96661.41
2023-01-10T16:28:47.759Z,96662.73
2023-01-10T16:31:15.506Z,96663.85
2023-01-10T16:33:44.978Z,96666.52
2023-01-10T16:36:19.643Z,96668.64
2023-01-10T16:38:47.840Z,96661.95
2023-01-10T16:41:35.088Z,96660.95
2023-01-10T16:44:02.970Z,96663.07
2023-01-10T16:46:31.736Z,96662.29
2023-01-10T16:48:59.987Z,96662.52
2023-01-10T16:51:31.815Z,96671.57
2023-01-10T16:54:00.860Z,96675.02
2023-01-10T16:56:30.127Z,96668.23
2023-01-10T16:58:59.348Z,96672.73
2023-01-10T17:01:35.904Z,96671.61
2023-01-10T17:04:29.540Z,96679.56
2023-01-10T17:06:58.853Z,96685.39
2023-01-10T17:09:29.882Z,96685.84
2023-01-10T17:12:18.616Z,96695.91
2023-01-10T17:14:50.812Z,96696.13
2023-01-10T17:17:31.811Z,96696.61
2023-01-10T17:20:00.662Z,96696.83
2023-01-10T17:22:30.489Z,96699.50
2023-01-10T17:24:58.535Z,96704.45
2023-01-10T17:27:26.606Z,96691.89
2023-01-10T17:29:54.525Z,96699.58
2023-01-10T17:32:22.537Z,96704.59
2023-01-10T17:34:55.249Z,96701.06
2023-01-10T17:37:23.104Z,96697.28
2023-01-10T17:39:50.825Z,96701.22
2023-01-10T17:42:19.858Z,96710.50
2023-01-10T17:44:49.259Z,96706.86
2023-01-10T17:47:17.724Z,96712.36
2023-01-10T17:49:49.480Z,96711.39
2023-01-10T17:52:17.803Z,96719.03
2023-01-10T17:54:52.742Z,96719.70
2023-01-10T17:57:21.090Z,96718.84
2023-01-10T18:03:45.744Z,96730.25
2023-01-10T18:07:03.315Z,96734.74
2023-01-10T18:10:04.671Z,96736.75
2023-01-10T18:12:40.089Z,96730.77
2023-01-10T18:15:11.227Z,96735.48
2023-01-10T18:24:09.990Z,96730.11
2023-01-10T18:26:37.996Z,96725.98
2023-01-10T18:29:05.957Z,96715.28
2023-01-10T18:31:34.899Z,96722.53
2023-01-10T18:34:02.844Z,96733.23
2023-01-10T18:36:38.698Z,96724.42
2023-01-10T18:39:06.497Z,96723.95
2023-01-10T18:41:34.525Z,96723.17
2023-01-10T18:44:02.623Z,96725.63
2023-01-10T18:46:31.930Z,96724.92
2023-01-10T18:49:00.274Z,96728.71
2023-01-10T18:51:28.253Z,96729.34
2023-01-10T18:53:56.166Z,96740.61
2023-01-10T18:56:24.480Z,96743.59
2023-01-10T18:58:52.697Z,96750.05
2023-01-10T19:01:23.009Z,96754.07
2023-01-10T19:03:51.680Z,96750.95
2023-01-10T19:06:22.360Z,96750.39
2023-01-10T19:08:51.181Z,96763.52
2023-01-10T19:11:21.020Z,96760.95
2023-01-10T19:13:53.456Z,96762.59
2023-01-10T19:16:25.139Z,96768.27
2023-01-10T19:19:00.985Z,96765.67
2023-01-10T19:21:32.344Z,96769.45
2023-01-10T19:24:04.648Z,96783.14
2023-01-10T19:26:35.988Z,96792.61
2023-01-10T19:29:04.796Z,96787.25
2023-01-10T19:31:36.605Z,96784.09
2023-01-10T19:34:07.968Z,96789.38
2023-01-10T19:36:36.041Z,96784.73
2023-01-10T19:39:06.782Z,96773.06
2023-01-10T19:41:35.845Z,96777.70
2023-01-10T19:44:08.777Z,96774.92
2023-01-10T19:46:40.455Z,96775.95
2023-01-10T19:49:09.339Z,96774.62
2023-01-10T19:51:42.392Z,96771.69
2023-01-10T19:54:13.338Z,96775.70
2023-01-10T19:56:41.359Z,96783.98
2023-01-10T19:59:13.441Z,96777.44
2023-01-10T20:01:43.527Z,96780.56
2023-01-10T20:04:17.025Z,96787.26
2023-01-10T20:06:48.948Z,96792.76
2023-01-10T20:09:17.160Z,96796.92
2023-01-10T20:11:46.375Z,96807.62
2023-01-10T20:14:19.635Z,96812.56
2023-01-10T20:16:48.977Z,96814.05
2023-01-10T20:19:18.239Z,96810.65
2023-01-10T20:21:48.407Z,96807.86
2023-01-10T20:24:20.540Z,96809.83
2023-01-10T20:26:50.200Z,96811.86
2023-01-10T20:29:19.164Z,96809.88
2023-01-10T20:31:50.193Z,96806.23
2023-01-10T20:34:22.512Z,96807.16
2023-01-10T20:36:54.167Z,96808.72
2023-01-10T20:39:27.302Z,96809.67
2023-01-10T20:41:55.639Z,96820.05
2023-01-10T20:44:25.604Z,96816.59
2023-01-10T20:46:54.954Z,96826.19
2023-01-10T20:49:25.761Z,96822.17
2023-01-10T20:51:53.934Z,96827.45
2023-01-10T20:54:25.248Z,96819.33
2023-01-10T20:56:52.972Z,96824.98
2023-01-10T20:59:21.737Z,96821.75
2023-01-10T21:01:50.866Z,96817.73
2023-01-10T21:04:18.794Z,96820.19
2023-01-10T21:06:47.039Z,96818.06
2023-01-10T21:09:16.204Z,96825.07
2023-01-10T21:11:57.860Z,96826.19
2023-01-10T21:14:14.383Z,96827.53
2023-01-10T21:16:42.413Z,96824.29
2023-01-10T21:19:12.309Z,96829.42
2023-01-10T21:21:44.422Z,96828.78
2023-01-10T21:24:12.680Z,96830.69
2023-01-10T21:26:41.946Z,96838.72
2023-01-10T21:29:12.818Z,96851.64
2023-01-10T21:31:40.092Z,96852.42
2023-01-10T21:34:08.158Z,96856.69
2023-01-10T21:36:38.837Z,96858.56
2023-01-10T21:39:08.001Z,96864.95
2023-01-10T21:41:54.364Z,96868.19
2023-01-10T21:44:22.676Z,96873.55
2023-01-10T21:46:52.229Z,96875.11
2023-01-10T21:49:20.865Z,96870.87
2023-01-10T21:51:48.720Z,96874.41
2023-01-10T21:54:20.064Z,96866.70
2023-01-10T21:56:47.740Z,96881.44
2023-01-10T21:59:18.598Z,96878.28
2023-01-10T22:01:47.013Z,96877.17
2023-01-10T22:04:17.326Z,96883.86
2023-01-10T22:06:45.444Z,96882.30
2023-01-10T22:09:13.109Z,96879.40
2023-01-10T22:11:40.874Z,96887.73
2023-01-10T22:14:10.441Z,96879.25
2023-01-10T22:16:38.135Z,96888.94
2023-01-10T22:19:06.151Z,96893.06
2023-01-10T22:21:36.645Z,96891.39
2023-01-10T22:24:06.495Z,96896.19
2023-01-10T22:26:34.567Z,96888.86
2023-01-10T22:29:03.827Z,96904.84
2023-01-10T22:31:32.952Z,96916.83
2023-01-10T22:34:00.694Z,96917.35
2023-01-10T22:36:28.657Z,96919.73
2023-01-10T22:38:56.430Z,96914.59
2023-01-10T22:41:26.333Z,96923.56
2023-01-10T22:43:55.368Z,96928.62
2023-01-10T22:46:23.745Z,96928.06
2023-01-10T22:48:52.378Z,96929.87
2023-01-10T22:51:21.801Z,96940.97
2023-01-10T22:53:58.793Z,96944.09
2023-01-10T22:56:26.773Z,96929.91
2023-01-10T22:58:57.286Z,96933.07
2023-01-10T23:01:25.725Z,96931.40
2023-01-10T23:03:53.421Z,96927.71
2023-01-10T23:06:21.483Z,96916.99
2023-01-10T23:08:50.111Z,96926.59
2023-01-10T23:11:20.375Z,96928.08
2023-01-10T23:13:48.353Z,96925.88
2023-01-10T23:16:24.841Z,96929.42
2023-01-10T23:18:52.732Z,96920.27
2023-01-10T23:21:20.485Z,96925.32
2023-01-10T23:23:48.527Z,96928.56
2023-01-10T23:26:16.240Z,96929.42
2023-01-10T23:28:47.895Z,96940.22
2023-01-10T23:31:23.112Z,96936.20
2023-01-10T23:33:51.287Z,96939.58
2023-01-10T23:36:19.648Z,96945.98
2023-01-10T23:38:47.674Z,96950.86
2023-01-10T23:41:15.839Z,96956.22
2023-01-10T23:43:43.891Z,96947.40
2023-01-10T23:46:13.272Z,96958.67
2023-01-10T23:48:42.668Z,96963.55
2023-01-10T23:51:10.983Z,96956.41
2023-01-10T23:53:40.269Z,96955.70
2023-01-10T23:56:14.247Z,96935.46
2023-01-10T23:58:42.539Z,96944.36
